Weather at Canyonlands Regional Airport

Public forecast

Using degrees Fahrenheit for public forecast. Weather courtesy of forecast.io.

Current aviation weather report (METAR) for Canyonlands Regional Airport

2024/07/21 06:53 (retrieved 1 hour ago)

KCNY 210653Z AUTO 06006KT 10SM CLR 27/04 A3013 RMK AO2 SLP129 T02670039 403670206

Aviation forecast (TAF) for Canyonlands Regional Airport

2024/07/21 06:30 (retrieved 1 hour ago)

TAF KCNY 210527Z 2106/2206 30006KT P6SM SCT200 FM210900 11004KT P6SM SKC FM211400 09007KT P6SM SKC FM212000 35008KT P6SM SKC FM220200 02011KT P6SM FEW250